SVVA/VLN METAR and TAF weather

Enter ICAO airport designator
Station Type Date Time Source
SVVA METAR 2019/05/22 17:00 UTC NOAA

SVVA 221700Z /////KT 9999 OVC016 25/21 Q1015 REDZ


Station Type Date Time Source
SVVA Decoded METAR 2019/05/22 17:00 UTC NOAA

Valencia, Venezuela (SVVA) 10-10N 067-56W 431M
May 22, 2019 - 01:00 PM EDT / 2019.05.22 1700 UTC
Visibility: greater than 7 mile(s):0
Sky conditions: overcast
Temperature: 77 F (25 C)
Dew Point: 69 F (21 C)
Relative Humidity: 78%
Pressure (altimeter): 29.97 in. Hg (1015 hPa)
ob: SVVA 221700Z /////KT 9999 OVC016 25/21 Q1015 REDZ
cycle: 17

Station Type Date Time Source
SVVA TAF 2019/05/23 00:30 UTC NOAA

TAF SVVA 232230Z 2400/2500 24005KT 9999 BKN016 TX30/2320Z TN23/2407Z
TEMPO 2400/2404 00000KT SCT016 SCT100
TEMPO 2407/2411 05003KT SCT016

Example: see airport list